sensor_id;sensor_type;location;lat;lon;timestamp;P1;durP1;ratioP1;P2;durP2;ratioP2
80926;SDS011;70385;44.538;18.532;2024-01-16T00:02:20;52.60;;;25.17;;
80926;SDS011;70385;44.538;18.532;2024-01-16T00:04:46;38.53;;;21.05;;
80926;SDS011;70385;44.538;18.532;2024-01-16T00:07:18;40.17;;;21.48;;
80926;SDS011;70385;44.538;18.532;2024-01-16T00:09:44;34.20;;;19.10;;
80926;SDS011;70385;44.538;18.532;2024-01-16T00:12:13;40.80;;;20.95;;
80926;SDS011;70385;44.538;18.532;2024-01-16T00:14:40;37.60;;;21.80;;
80926;SDS011;70385;44.538;18.532;2024-01-16T00:17:06;44.85;;;22.35;;
80926;SDS011;70385;44.538;18.532;2024-01-16T00:19:35;46.38;;;25.70;;
80926;SDS011;70385;44.538;18.532;2024-01-16T00:22:01;55.35;;;27.88;;
80926;SDS011;70385;44.538;18.532;2024-01-16T00:24:28;46.15;;;24.88;;
80926;SDS011;70385;44.538;18.532;2024-01-16T00:26:55;49.17;;;26.00;;
80926;SDS011;70385;44.538;18.532;2024-01-16T00:29:22;90.43;;;43.78;;
80926;SDS011;70385;44.538;18.532;2024-01-16T00:31:49;97.45;;;48.60;;
80926;SDS011;70385;44.538;18.532;2024-01-16T00:34:16;129.02;;;58.58;;
80926;SDS011;70385;44.538;18.532;2024-01-16T00:36:43;125.70;;;58.85;;
80926;SDS011;70385;44.538;18.532;2024-01-16T00:39:09;155.60;;;69.95;;
80926;SDS011;70385;44.538;18.532;2024-01-16T00:41:35;141.98;;;62.92;;
80926;SDS011;70385;44.538;18.532;2024-01-16T00:44:03;143.30;;;63.20;;
80926;SDS011;70385;44.538;18.532;2024-01-16T00:46:29;146.25;;;65.05;;
80926;SDS011;70385;44.538;18.532;2024-01-16T00:48:56;137.55;;;64.35;;
80926;SDS011;70385;44.538;18.532;2024-01-16T00:51:24;136.75;;;64.32;;
80926;SDS011;70385;44.538;18.532;2024-01-16T00:53:51;148.32;;;70.28;;
80926;SDS011;70385;44.538;18.532;2024-01-16T00:56:18;123.93;;;56.90;;
80926;SDS011;70385;44.538;18.532;2024-01-16T00:58:44;107.70;;;53.53;;
80926;SDS011;70385;44.538;18.532;2024-01-16T01:01:10;78.25;;;40.35;;
80926;SDS011;70385;44.538;18.532;2024-01-16T01:03:39;129.90;;;61.58;;
80926;SDS011;70385;44.538;18.532;2024-01-16T01:06:06;133.80;;;64.60;;
80926;SDS011;70385;44.538;18.532;2024-01-16T01:08:32;104.40;;;52.97;;
80926;SDS011;70385;44.538;18.532;2024-01-16T01:11:01;104.85;;;52.00;;
80926;SDS011;70385;44.538;18.532;2024-01-16T01:13:28;120.43;;;55.75;;
80926;SDS011;70385;44.538;18.532;2024-01-16T01:15:57;105.65;;;53.20;;
80926;SDS011;70385;44.538;18.532;2024-01-16T01:18:23;110.78;;;55.45;;
80926;SDS011;70385;44.538;18.532;2024-01-16T01:20:49;102.97;;;48.67;;
80926;SDS011;70385;44.538;18.532;2024-01-16T01:23:15;98.35;;;48.22;;
80926;SDS011;70385;44.538;18.532;2024-01-16T01:25:42;93.57;;;46.40;;
80926;SDS011;70385;44.538;18.532;2024-01-16T01:28:08;89.88;;;45.03;;
80926;SDS011;70385;44.538;18.532;2024-01-16T01:30:37;83.28;;;43.08;;
80926;SDS011;70385;44.538;18.532;2024-01-16T01:33:04;71.55;;;36.00;;
80926;SDS011;70385;44.538;18.532;2024-01-16T01:35:30;106.43;;;53.28;;
80926;SDS011;70385;44.538;18.532;2024-01-16T01:37:57;103.43;;;52.40;;
80926;SDS011;70385;44.538;18.532;2024-01-16T01:40:23;97.85;;;47.33;;
80926;SDS011;70385;44.538;18.532;2024-01-16T01:42:51;126.93;;;63.85;;
80926;SDS011;70385;44.538;18.532;2024-01-16T01:45:17;148.98;;;73.20;;
80926;SDS011;70385;44.538;18.532;2024-01-16T01:47:44;109.07;;;56.20;;
80926;SDS011;70385;44.538;18.532;2024-01-16T01:50:11;86.95;;;44.00;;
80926;SDS011;70385;44.538;18.532;2024-01-16T01:52:42;104.18;;;50.05;;
80926;SDS011;70385;44.538;18.532;2024-01-16T01:55:10;148.75;;;73.47;;
80926;SDS011;70385;44.538;18.532;2024-01-16T01:57:39;158.75;;;76.45;;
80926;SDS011;70385;44.538;18.532;2024-01-16T02:00:09;165.55;;;78.45;;
80926;SDS011;70385;44.538;18.532;2024-01-16T02:02:41;166.77;;;76.85;;
80926;SDS011;70385;44.538;18.532;2024-01-16T02:05:07;155.10;;;74.82;;
80926;SDS011;70385;44.538;18.532;2024-01-16T02:07:33;183.45;;;83.15;;
80926;SDS011;70385;44.538;18.532;2024-01-16T02:10:00;160.27;;;78.78;;
80926;SDS011;70385;44.538;18.532;2024-01-16T02:12:26;184.48;;;90.68;;
80926;SDS011;70385;44.538;18.532;2024-01-16T02:14:53;196.57;;;95.25;;
80926;SDS011;70385;44.538;18.532;2024-01-16T02:17:20;195.02;;;98.13;;
80926;SDS011;70385;44.538;18.532;2024-01-16T02:19:46;191.18;;;92.03;;
80926;SDS011;70385;44.538;18.532;2024-01-16T02:22:15;175.57;;;86.30;;
80926;SDS011;70385;44.538;18.532;2024-01-16T02:24:46;175.60;;;86.88;;
80926;SDS011;70385;44.538;18.532;2024-01-16T02:27:13;167.80;;;84.53;;
80926;SDS011;70385;44.538;18.532;2024-01-16T02:29:42;159.90;;;81.05;;
80926;SDS011;70385;44.538;18.532;2024-01-16T02:32:10;154.80;;;79.90;;
80926;SDS011;70385;44.538;18.532;2024-01-16T02:34:38;154.90;;;77.20;;
80926;SDS011;70385;44.538;18.532;2024-01-16T02:37:06;134.65;;;67.32;;
80926;SDS011;70385;44.538;18.532;2024-01-16T02:39:34;128.13;;;62.42;;
80926;SDS011;70385;44.538;18.532;2024-01-16T02:42:00;124.28;;;61.15;;
80926;SDS011;70385;44.538;18.532;2024-01-16T02:44:27;121.15;;;62.30;;
80926;SDS011;70385;44.538;18.532;2024-01-16T02:46:55;113.63;;;58.42;;
80926;SDS011;70385;44.538;18.532;2024-01-16T02:49:21;128.05;;;63.35;;
80926;SDS011;70385;44.538;18.532;2024-01-16T02:51:47;130.32;;;59.05;;
80926;SDS011;70385;44.538;18.532;2024-01-16T02:54:15;126.57;;;61.67;;
80926;SDS011;70385;44.538;18.532;2024-01-16T02:56:41;119.07;;;59.88;;
80926;SDS011;70385;44.538;18.532;2024-01-16T02:59:07;118.75;;;55.75;;
80926;SDS011;70385;44.538;18.532;2024-01-16T03:01:34;123.93;;;58.55;;
80926;SDS011;70385;44.538;18.532;2024-01-16T03:04:00;115.05;;;56.75;;
80926;SDS011;70385;44.538;18.532;2024-01-16T03:06:30;118.82;;;55.33;;
80926;SDS011;70385;44.538;18.532;2024-01-16T03:08:57;128.85;;;57.45;;
80926;SDS011;70385;44.538;18.532;2024-01-16T03:11:23;119.32;;;54.67;;
80926;SDS011;70385;44.538;18.532;2024-01-16T03:13:49;127.25;;;58.17;;
80926;SDS011;70385;44.538;18.532;2024-01-16T03:16:19;121.00;;;56.85;;
80926;SDS011;70385;44.538;18.532;2024-01-16T03:18:47;149.55;;;61.05;;
80926;SDS011;70385;44.538;18.532;2024-01-16T03:21:13;120.55;;;51.17;;
80926;SDS011;70385;44.538;18.532;2024-01-16T03:23:39;119.38;;;50.58;;
80926;SDS011;70385;44.538;18.532;2024-01-16T03:26:12;124.47;;;48.38;;
80926;SDS011;70385;44.538;18.532;2024-01-16T03:28:40;114.63;;;43.97;;
80926;SDS011;70385;44.538;18.532;2024-01-16T03:31:09;111.10;;;45.58;;
80926;SDS011;70385;44.538;18.532;2024-01-16T03:33:37;113.78;;;45.28;;
80926;SDS011;70385;44.538;18.532;2024-01-16T03:36:08;116.72;;;44.58;;
80926;SDS011;70385;44.538;18.532;2024-01-16T03:38:35;106.53;;;44.22;;
80926;SDS011;70385;44.538;18.532;2024-01-16T03:41:04;81.60;;;35.80;;
80926;SDS011;70385;44.538;18.532;2024-01-16T03:43:33;70.57;;;30.92;;
80926;SDS011;70385;44.538;18.532;2024-01-16T03:46:01;65.85;;;29.65;;
80926;SDS011;70385;44.538;18.532;2024-01-16T03:48:28;46.22;;;22.77;;
80926;SDS011;70385;44.538;18.532;2024-01-16T03:50:56;37.65;;;20.15;;
80926;SDS011;70385;44.538;18.532;2024-01-16T03:53:22;44.17;;;20.45;;
80926;SDS011;70385;44.538;18.532;2024-01-16T03:55:48;33.33;;;16.40;;
80926;SDS011;70385;44.538;18.532;2024-01-16T03:58:17;26.77;;;15.38;;
80926;SDS011;70385;44.538;18.532;2024-01-16T04:00:44;26.20;;;13.82;;
80926;SDS011;70385;44.538;18.532;2024-01-16T04:03:12;23.05;;;14.07;;
80926;SDS011;70385;44.538;18.532;2024-01-16T04:05:39;24.73;;;14.30;;
80926;SDS011;70385;44.538;18.532;2024-01-16T04:08:05;29.58;;;17.08;;
80926;SDS011;70385;44.538;18.532;2024-01-16T04:10:31;41.70;;;23.60;;
80926;SDS011;70385;44.538;18.532;2024-01-16T04:13:03;60.30;;;29.15;;
80926;SDS011;70385;44.538;18.532;2024-01-16T04:15:29;65.07;;;34.83;;
80926;SDS011;70385;44.538;18.532;2024-01-16T04:17:56;49.42;;;26.77;;
80926;SDS011;70385;44.538;18.532;2024-01-16T04:20:23;32.95;;;18.42;;
80926;SDS011;70385;44.538;18.532;2024-01-16T04:22:49;30.45;;;14.77;;
80926;SDS011;70385;44.538;18.532;2024-01-16T04:25:17;20.55;;;12.38;;
80926;SDS011;70385;44.538;18.532;2024-01-16T04:27:43;21.27;;;11.63;;
80926;SDS011;70385;44.538;18.532;2024-01-16T04:30:11;20.25;;;11.05;;
80926;SDS011;70385;44.538;18.532;2024-01-16T04:32:38;20.00;;;11.32;;
80926;SDS011;70385;44.538;18.532;2024-01-16T04:35:04;23.58;;;12.50;;
80926;SDS011;70385;44.538;18.532;2024-01-16T04:37:32;21.58;;;11.80;;
80926;SDS011;70385;44.538;18.532;2024-01-16T04:39:58;22.55;;;11.23;;
80926;SDS011;70385;44.538;18.532;2024-01-16T04:42:27;23.15;;;11.73;;
80926;SDS011;70385;44.538;18.532;2024-01-16T04:44:53;19.70;;;11.23;;
80926;SDS011;70385;44.538;18.532;2024-01-16T04:47:20;21.52;;;12.25;;
80926;SDS011;70385;44.538;18.532;2024-01-16T04:49:46;24.88;;;13.32;;
80926;SDS011;70385;44.538;18.532;2024-01-16T04:52:13;30.50;;;15.63;;
80926;SDS011;70385;44.538;18.532;2024-01-16T04:54:39;33.85;;;17.48;;
80926;SDS011;70385;44.538;18.532;2024-01-16T04:57:05;55.20;;;26.38;;
80926;SDS011;70385;44.538;18.532;2024-01-16T04:59:31;51.20;;;25.38;;
80926;SDS011;70385;44.538;18.532;2024-01-16T05:02:00;51.42;;;25.10;;
80926;SDS011;70385;44.538;18.532;2024-01-16T05:04:26;49.60;;;26.27;;
80926;SDS011;70385;44.538;18.532;2024-01-16T05:06:52;42.22;;;20.48;;
80926;SDS011;70385;44.538;18.532;2024-01-16T05:09:18;37.50;;;20.10;;
80926;SDS011;70385;44.538;18.532;2024-01-16T05:11:51;42.78;;;21.95;;
80926;SDS011;70385;44.538;18.532;2024-01-16T05:14:16;34.80;;;21.13;;
80926;SDS011;70385;44.538;18.532;2024-01-16T05:16:42;41.25;;;21.25;;
80926;SDS011;70385;44.538;18.532;2024-01-16T05:19:15;39.95;;;21.65;;
80926;SDS011;70385;44.538;18.532;2024-01-16T05:21:41;42.65;;;24.88;;
80926;SDS011;70385;44.538;18.532;2024-01-16T05:24:08;47.03;;;24.73;;
80926;SDS011;70385;44.538;18.532;2024-01-16T05:26:34;52.92;;;26.05;;
80926;SDS011;70385;44.538;18.532;2024-01-16T05:29:00;47.30;;;24.55;;
80926;SDS011;70385;44.538;18.532;2024-01-16T05:31:26;54.95;;;25.55;;
80926;SDS011;70385;44.538;18.532;2024-01-16T05:33:54;47.47;;;24.42;;
80926;SDS011;70385;44.538;18.532;2024-01-16T05:36:26;66.95;;;31.92;;
80926;SDS011;70385;44.538;18.532;2024-01-16T05:38:54;72.85;;;36.30;;
80926;SDS011;70385;44.538;18.532;2024-01-16T05:41:20;86.93;;;43.10;;
80926;SDS011;70385;44.538;18.532;2024-01-16T05:43:51;95.72;;;44.00;;
80926;SDS011;70385;44.538;18.532;2024-01-16T05:46:18;106.70;;;51.75;;
80926;SDS011;70385;44.538;18.532;2024-01-16T05:48:46;95.47;;;45.45;;
80926;SDS011;70385;44.538;18.532;2024-01-16T05:51:12;96.90;;;45.95;;
80926;SDS011;70385;44.538;18.532;2024-01-16T05:53:39;90.07;;;40.20;;
80926;SDS011;70385;44.538;18.532;2024-01-16T05:56:05;96.20;;;44.00;;
80926;SDS011;70385;44.538;18.532;2024-01-16T05:58:31;88.47;;;41.03;;
80926;SDS011;70385;44.538;18.532;2024-01-16T06:01:01;96.43;;;43.35;;
80926;SDS011;70385;44.538;18.532;2024-01-16T06:03:27;99.25;;;43.58;;
80926;SDS011;70385;44.538;18.532;2024-01-16T06:05:57;84.53;;;39.80;;
80926;SDS011;70385;44.538;18.532;2024-01-16T06:08:24;82.53;;;36.38;;
80926;SDS011;70385;44.538;18.532;2024-01-16T06:10:51;73.70;;;36.78;;
80926;SDS011;70385;44.538;18.532;2024-01-16T06:13:20;85.30;;;40.22;;
80926;SDS011;70385;44.538;18.532;2024-01-16T06:15:48;85.63;;;41.97;;
80926;SDS011;70385;44.538;18.532;2024-01-16T06:18:15;95.10;;;42.10;;
80926;SDS011;70385;44.538;18.532;2024-01-16T06:20:41;94.20;;;42.80;;
80926;SDS011;70385;44.538;18.532;2024-01-16T06:23:07;83.15;;;40.50;;
80926;SDS011;70385;44.538;18.532;2024-01-16T06:25:34;67.00;;;32.33;;
80926;SDS011;70385;44.538;18.532;2024-01-16T06:28:00;65.57;;;31.30;;
80926;SDS011;70385;44.538;18.532;2024-01-16T06:30:26;64.15;;;31.80;;
80926;SDS011;70385;44.538;18.532;2024-01-16T06:32:52;69.88;;;33.92;;
80926;SDS011;70385;44.538;18.532;2024-01-16T06:35:18;85.10;;;39.72;;
80926;SDS011;70385;44.538;18.532;2024-01-16T06:37:44;78.15;;;37.20;;
80926;SDS011;70385;44.538;18.532;2024-01-16T06:40:10;81.47;;;38.05;;
80926;SDS011;70385;44.538;18.532;2024-01-16T06:42:36;80.97;;;37.47;;
80926;SDS011;70385;44.538;18.532;2024-01-16T06:45:03;82.50;;;39.05;;
80926;SDS011;70385;44.538;18.532;2024-01-16T06:47:31;77.93;;;36.75;;
80926;SDS011;70385;44.538;18.532;2024-01-16T06:49:58;78.32;;;38.15;;
80926;SDS011;70385;44.538;18.532;2024-01-16T06:52:26;62.30;;;33.35;;
80926;SDS011;70385;44.538;18.532;2024-01-16T06:54:53;61.50;;;32.47;;
80926;SDS011;70385;44.538;18.532;2024-01-16T06:57:19;77.35;;;41.05;;
80926;SDS011;70385;44.538;18.532;2024-01-16T06:59:45;71.63;;;35.40;;
80926;SDS011;70385;44.538;18.532;2024-01-16T07:02:13;87.30;;;40.78;;
80926;SDS011;70385;44.538;18.532;2024-01-16T07:04:40;87.80;;;42.55;;
80926;SDS011;70385;44.538;18.532;2024-01-16T07:07:06;74.68;;;35.92;;
80926;SDS011;70385;44.538;18.532;2024-01-16T07:09:33;64.57;;;34.78;;
80926;SDS011;70385;44.538;18.532;2024-01-16T07:11:59;79.78;;;36.83;;
80926;SDS011;70385;44.538;18.532;2024-01-16T07:14:25;74.22;;;38.05;;
80926;SDS011;70385;44.538;18.532;2024-01-16T07:16:51;79.70;;;38.15;;
80926;SDS011;70385;44.538;18.532;2024-01-16T07:19:17;70.22;;;35.15;;
80926;SDS011;70385;44.538;18.532;2024-01-16T07:21:45;66.75;;;34.20;;
80926;SDS011;70385;44.538;18.532;2024-01-16T07:24:12;98.63;;;46.10;;
80926;SDS011;70385;44.538;18.532;2024-01-16T07:26:40;134.40;;;58.67;;
80926;SDS011;70385;44.538;18.532;2024-01-16T07:29:08;151.43;;;64.78;;
80926;SDS011;70385;44.538;18.532;2024-01-16T07:31:35;128.55;;;59.67;;
80926;SDS011;70385;44.538;18.532;2024-01-16T07:34:01;95.47;;;46.60;;
80926;SDS011;70385;44.538;18.532;2024-01-16T07:36:28;152.73;;;74.22;;
80926;SDS011;70385;44.538;18.532;2024-01-16T07:38:55;159.20;;;72.35;;
80926;SDS011;70385;44.538;18.532;2024-01-16T07:41:21;125.40;;;61.75;;
80926;SDS011;70385;44.538;18.532;2024-01-16T07:43:48;118.05;;;58.33;;
80926;SDS011;70385;44.538;18.532;2024-01-16T07:46:18;97.70;;;50.55;;
80926;SDS011;70385;44.538;18.532;2024-01-16T07:48:50;88.85;;;47.03;;
80926;SDS011;70385;44.538;18.532;2024-01-16T07:51:18;105.57;;;54.22;;
80926;SDS011;70385;44.538;18.532;2024-01-16T07:53:45;94.03;;;50.13;;
80926;SDS011;70385;44.538;18.532;2024-01-16T07:56:12;97.65;;;48.50;;
80926;SDS011;70385;44.538;18.532;2024-01-16T07:58:45;86.43;;;45.83;;
80926;SDS011;70385;44.538;18.532;2024-01-16T08:01:13;91.72;;;45.35;;
80926;SDS011;70385;44.538;18.532;2024-01-16T08:03:40;86.85;;;45.25;;
80926;SDS011;70385;44.538;18.532;2024-01-16T08:06:06;84.18;;;43.17;;
80926;SDS011;70385;44.538;18.532;2024-01-16T08:08:33;51.15;;;29.13;;
80926;SDS011;70385;44.538;18.532;2024-01-16T08:11:00;68.57;;;33.13;;
80926;SDS011;70385;44.538;18.532;2024-01-16T08:13:26;69.03;;;35.97;;
80926;SDS011;70385;44.538;18.532;2024-01-16T08:15:55;67.97;;;36.40;;
80926;SDS011;70385;44.538;18.532;2024-01-16T08:18:21;61.33;;;32.53;;
80926;SDS011;70385;44.538;18.532;2024-01-16T08:20:48;58.40;;;31.50;;
80926;SDS011;70385;44.538;18.532;2024-01-16T08:23:16;70.05;;;36.65;;
80926;SDS011;70385;44.538;18.532;2024-01-16T08:25:51;78.82;;;42.85;;
80926;SDS011;70385;44.538;18.532;2024-01-16T08:28:18;102.38;;;54.47;;
80926;SDS011;70385;44.538;18.532;2024-01-16T08:30:49;110.88;;;58.28;;
80926;SDS011;70385;44.538;18.532;2024-01-16T08:33:16;105.15;;;50.75;;
80926;SDS011;70385;44.538;18.532;2024-01-16T08:35:47;84.72;;;40.53;;
80926;SDS011;70385;44.538;18.532;2024-01-16T08:38:15;74.85;;;37.88;;
80926;SDS011;70385;44.538;18.532;2024-01-16T08:40:43;79.25;;;39.25;;
80926;SDS011;70385;44.538;18.532;2024-01-16T08:43:10;79.75;;;41.10;;
80926;SDS011;70385;44.538;18.532;2024-01-16T08:45:36;92.93;;;45.53;;
80926;SDS011;70385;44.538;18.532;2024-01-16T08:48:02;100.28;;;48.28;;
80926;SDS011;70385;44.538;18.532;2024-01-16T08:50:30;100.90;;;46.53;;
80926;SDS011;70385;44.538;18.532;2024-01-16T08:52:57;96.63;;;48.00;;
80926;SDS011;70385;44.538;18.532;2024-01-16T08:55:28;104.88;;;51.13;;
80926;SDS011;70385;44.538;18.532;2024-01-16T08:58:01;184.70;;;97.97;;
80926;SDS011;70385;44.538;18.532;2024-01-16T09:00:28;185.90;;;97.95;;
80926;SDS011;70385;44.538;18.532;2024-01-16T09:02:57;154.40;;;81.38;;
80926;SDS011;70385;44.538;18.532;2024-01-16T09:05:35;147.88;;;71.47;;
80926;SDS011;70385;44.538;18.532;2024-01-16T09:08:05;106.82;;;56.10;;
80926;SDS011;70385;44.538;18.532;2024-01-16T09:10:36;97.80;;;50.17;;
80926;SDS011;70385;44.538;18.532;2024-01-16T09:13:02;88.80;;;49.22;;
80926;SDS011;70385;44.538;18.532;2024-01-16T09:15:29;91.65;;;47.80;;
80926;SDS011;70385;44.538;18.532;2024-01-16T09:17:55;97.72;;;48.88;;
80926;SDS011;70385;44.538;18.532;2024-01-16T09:20:22;88.53;;;46.47;;
80926;SDS011;70385;44.538;18.532;2024-01-16T09:22:49;88.82;;;46.00;;
80926;SDS011;70385;44.538;18.532;2024-01-16T09:25:14;83.28;;;45.28;;
80926;SDS011;70385;44.538;18.532;2024-01-16T09:27:42;78.43;;;40.60;;
80926;SDS011;70385;44.538;18.532;2024-01-16T09:30:08;85.15;;;43.40;;
80926;SDS011;70385;44.538;18.532;2024-01-16T09:32:40;70.90;;;38.58;;
80926;SDS011;70385;44.538;18.532;2024-01-16T09:35:06;59.17;;;31.65;;
80926;SDS011;70385;44.538;18.532;2024-01-16T09:37:35;55.33;;;31.58;;
80926;SDS011;70385;44.538;18.532;2024-01-16T09:40:06;51.13;;;31.85;;
80926;SDS011;70385;44.538;18.532;2024-01-16T09:42:32;53.47;;;31.98;;
80926;SDS011;70385;44.538;18.532;2024-01-16T09:45:00;49.67;;;28.42;;
80926;SDS011;70385;44.538;18.532;2024-01-16T09:47:31;46.50;;;28.10;;
80926;SDS011;70385;44.538;18.532;2024-01-16T09:50:02;53.42;;;30.65;;
80926;SDS011;70385;44.538;18.532;2024-01-16T09:52:32;59.78;;;32.40;;
80926;SDS011;70385;44.538;18.532;2024-01-16T09:54:58;54.47;;;32.35;;
80926;SDS011;70385;44.538;18.532;2024-01-16T09:57:28;64.53;;;35.90;;
80926;SDS011;70385;44.538;18.532;2024-01-16T09:59:56;62.63;;;36.25;;
80926;SDS011;70385;44.538;18.532;2024-01-16T10:02:25;63.67;;;33.90;;
80926;SDS011;70385;44.538;18.532;2024-01-16T10:04:54;55.60;;;30.73;;
80926;SDS011;70385;44.538;18.532;2024-01-16T10:07:20;58.17;;;29.05;;
80926;SDS011;70385;44.538;18.532;2024-01-16T10:09:55;48.00;;;27.50;;
80926;SDS011;70385;44.538;18.532;2024-01-16T10:12:27;54.58;;;29.83;;
80926;SDS011;70385;44.538;18.532;2024-01-16T10:14:57;50.92;;;29.65;;
80926;SDS011;70385;44.538;18.532;2024-01-16T10:17:23;61.30;;;30.77;;
80926;SDS011;70385;44.538;18.532;2024-01-16T10:20:03;69.55;;;33.35;;
80926;SDS011;70385;44.538;18.532;2024-01-16T10:22:33;72.32;;;34.47;;
80926;SDS011;70385;44.538;18.532;2024-01-16T10:25:08;75.28;;;37.03;;
80926;SDS011;70385;44.538;18.532;2024-01-16T10:27:36;70.18;;;35.55;;
80926;SDS011;70385;44.538;18.532;2024-01-16T10:30:04;68.07;;;36.35;;
80926;SDS011;70385;44.538;18.532;2024-01-16T10:32:32;68.25;;;34.88;;
80926;SDS011;70385;44.538;18.532;2024-01-16T10:35:04;72.80;;;33.28;;
80926;SDS011;70385;44.538;18.532;2024-01-16T10:37:53;62.28;;;33.78;;
80926;SDS011;70385;44.538;18.532;2024-01-16T10:40:23;63.50;;;34.58;;
80926;SDS011;70385;44.538;18.532;2024-01-16T10:43:02;63.97;;;34.95;;
80926;SDS011;70385;44.538;18.532;2024-01-16T10:45:31;70.23;;;36.13;;
80926;SDS011;70385;44.538;18.532;2024-01-16T10:50:36;65.03;;;35.97;;
80926;SDS011;70385;44.538;18.532;2024-01-16T10:53:08;72.03;;;35.38;;
80926;SDS011;70385;44.538;18.532;2024-01-16T10:55:51;63.15;;;31.50;;
80926;SDS011;70385;44.538;18.532;2024-01-16T10:58:20;69.32;;;36.10;;
80926;SDS011;70385;44.538;18.532;2024-01-16T11:00:57;69.65;;;35.65;;
80926;SDS011;70385;44.538;18.532;2024-01-16T11:03:49;75.72;;;39.28;;
80926;SDS011;70385;44.538;18.532;2024-01-16T11:06:23;70.47;;;36.25;;
80926;SDS011;70385;44.538;18.532;2024-01-16T11:08:52;71.07;;;38.97;;
80926;SDS011;70385;44.538;18.532;2024-01-16T11:11:22;74.55;;;37.40;;
80926;SDS011;70385;44.538;18.532;2024-01-16T11:13:49;71.45;;;40.42;;
80926;SDS011;70385;44.538;18.532;2024-01-16T11:16:24;68.57;;;38.40;;
80926;SDS011;70385;44.538;18.532;2024-01-16T11:18:53;68.15;;;34.70;;
80926;SDS011;70385;44.538;18.532;2024-01-16T11:21:30;74.13;;;35.90;;
80926;SDS011;70385;44.538;18.532;2024-01-16T11:23:59;73.68;;;36.88;;
80926;SDS011;70385;44.538;18.532;2024-01-16T11:26:29;70.55;;;36.90;;
80926;SDS011;70385;44.538;18.532;2024-01-16T11:31:55;82.35;;;40.47;;
80926;SDS011;70385;44.538;18.532;2024-01-16T11:37:13;68.78;;;34.17;;
80926;SDS011;70385;44.538;18.532;2024-01-16T11:39:39;73.63;;;38.97;;
80926;SDS011;70385;44.538;18.532;2024-01-16T11:42:12;70.35;;;37.88;;
80926;SDS011;70385;44.538;18.532;2024-01-16T11:44:56;72.85;;;39.10;;
80926;SDS011;70385;44.538;18.532;2024-01-16T11:47:23;75.50;;;38.53;;
80926;SDS011;70385;44.538;18.532;2024-01-16T11:50:10;76.47;;;38.53;;
80926;SDS011;70385;44.538;18.532;2024-01-16T11:53:05;66.72;;;36.08;;
80926;SDS011;70385;44.538;18.532;2024-01-16T11:58:25;63.20;;;33.08;;
80926;SDS011;70385;44.538;18.532;2024-01-16T12:00:47;58.00;;;34.08;;
80926;SDS011;70385;44.538;18.532;2024-01-16T12:03:20;68.80;;;35.25;;
80926;SDS011;70385;44.538;18.532;2024-01-16T12:05:57;67.13;;;35.42;;
80926;SDS011;70385;44.538;18.532;2024-01-16T12:08:25;66.75;;;32.75;;
80926;SDS011;70385;44.538;18.532;2024-01-16T12:10:54;63.30;;;32.75;;
80926;SDS011;70385;44.538;18.532;2024-01-16T12:13:27;76.30;;;34.97;;
80926;SDS011;70385;44.538;18.532;2024-01-16T12:16:07;60.03;;;32.05;;
80926;SDS011;70385;44.538;18.532;2024-01-16T12:18:42;59.80;;;32.10;;
80926;SDS011;70385;44.538;18.532;2024-01-16T12:21:10;59.70;;;32.42;;
80926;SDS011;70385;44.538;18.532;2024-01-16T12:23:41;65.30;;;31.63;;
80926;SDS011;70385;44.538;18.532;2024-01-16T12:26:09;61.15;;;31.10;;
80926;SDS011;70385;44.538;18.532;2024-01-16T12:28:36;63.55;;;32.33;;
80926;SDS011;70385;44.538;18.532;2024-01-16T12:31:04;59.67;;;29.90;;
80926;SDS011;70385;44.538;18.532;2024-01-16T12:33:34;55.13;;;28.50;;
80926;SDS011;70385;44.538;18.532;2024-01-16T12:36:03;57.58;;;28.27;;
80926;SDS011;70385;44.538;18.532;2024-01-16T12:38:35;54.35;;;27.40;;
80926;SDS011;70385;44.538;18.532;2024-01-16T12:41:02;52.40;;;26.70;;
80926;SDS011;70385;44.538;18.532;2024-01-16T12:43:35;46.30;;;24.65;;
80926;SDS011;70385;44.538;18.532;2024-01-16T12:46:02;40.90;;;21.90;;
80926;SDS011;70385;44.538;18.532;2024-01-16T12:48:32;40.10;;;22.25;;
80926;SDS011;70385;44.538;18.532;2024-01-16T12:51:04;31.90;;;17.77;;
80926;SDS011;70385;44.538;18.532;2024-01-16T12:53:35;27.17;;;15.27;;
80926;SDS011;70385;44.538;18.532;2024-01-16T12:56:06;27.67;;;15.38;;
80926;SDS011;70385;44.538;18.532;2024-01-16T12:58:39;26.25;;;14.75;;
80926;SDS011;70385;44.538;18.532;2024-01-16T13:01:26;25.52;;;14.63;;
80926;SDS011;70385;44.538;18.532;2024-01-16T13:03:54;26.90;;;16.55;;
80926;SDS011;70385;44.538;18.532;2024-01-16T13:06:23;25.02;;;15.45;;
80926;SDS011;70385;44.538;18.532;2024-01-16T13:08:53;24.67;;;14.90;;
80926;SDS011;70385;44.538;18.532;2024-01-16T13:11:48;24.85;;;13.50;;
80926;SDS011;70385;44.538;18.532;2024-01-16T13:14:24;17.23;;;9.75;;
80926;SDS011;70385;44.538;18.532;2024-01-16T13:16:53;15.98;;;8.15;;
80926;SDS011;70385;44.538;18.532;2024-01-16T13:19:26;13.07;;;7.57;;
80926;SDS011;70385;44.538;18.532;2024-01-16T13:21:54;20.35;;;8.82;;
80926;SDS011;70385;44.538;18.532;2024-01-16T13:24:20;18.10;;;9.18;;
80926;SDS011;70385;44.538;18.532;2024-01-16T13:26:55;20.43;;;11.03;;
80926;SDS011;70385;44.538;18.532;2024-01-16T13:29:22;13.40;;;7.40;;
80926;SDS011;70385;44.538;18.532;2024-01-16T13:31:50;9.27;;;5.82;;
80926;SDS011;70385;44.538;18.532;2024-01-16T13:34:22;7.70;;;4.18;;
80926;SDS011;70385;44.538;18.532;2024-01-16T13:36:50;5.20;;;3.67;;
80926;SDS011;70385;44.538;18.532;2024-01-16T13:39:20;7.22;;;3.75;;
80926;SDS011;70385;44.538;18.532;2024-01-16T13:41:46;6.20;;;3.90;;
80926;SDS011;70385;44.538;18.532;2024-01-16T13:44:13;4.78;;;3.35;;
80926;SDS011;70385;44.538;18.532;2024-01-16T13:46:43;5.43;;;3.30;;
80926;SDS011;70385;44.538;18.532;2024-01-16T13:49:11;9.05;;;3.50;;
80926;SDS011;70385;44.538;18.532;2024-01-16T13:51:38;5.90;;;3.45;;
80926;SDS011;70385;44.538;18.532;2024-01-16T13:54:04;5.70;;;3.35;;
80926;SDS011;70385;44.538;18.532;2024-01-16T13:56:32;4.18;;;2.65;;
80926;SDS011;70385;44.538;18.532;2024-01-16T13:59:04;7.88;;;3.92;;
80926;SDS011;70385;44.538;18.532;2024-01-16T14:01:31;7.22;;;4.03;;
80926;SDS011;70385;44.538;18.532;2024-01-16T14:03:58;10.07;;;4.97;;
80926;SDS011;70385;44.538;18.532;2024-01-16T14:06:27;11.85;;;5.47;;
80926;SDS011;70385;44.538;18.532;2024-01-16T14:09:02;10.47;;;6.13;;
80926;SDS011;70385;44.538;18.532;2024-01-16T14:11:29;17.38;;;9.15;;
80926;SDS011;70385;44.538;18.532;2024-01-16T14:13:57;26.92;;;11.68;;
80926;SDS011;70385;44.538;18.532;2024-01-16T14:16:25;20.25;;;9.98;;
80926;SDS011;70385;44.538;18.532;2024-01-16T14:18:57;17.08;;;7.82;;
80926;SDS011;70385;44.538;18.532;2024-01-16T14:21:25;13.23;;;6.15;;
80926;SDS011;70385;44.538;18.532;2024-01-16T14:23:52;8.73;;;4.88;;
80926;SDS011;70385;44.538;18.532;2024-01-16T14:26:17;9.23;;;4.63;;
80926;SDS011;70385;44.538;18.532;2024-01-16T14:28:44;8.32;;;4.03;;